Latest Weather Observations for Busselton Airport

IDW60801

Issued at 7:42 pm WST Monday 22 July 2019 (issued every 10 minutes, with the page automatically refreshed every 10 minutes)

About weather observations | Map of weather stations | Latest weather observations for WA | Other Formats
Station Details ID: 009603 Name: BUSSELTON AERO Lat: -33.68 Lon: 115.40 Height: 16.3 m
Data from the previous 72 hours. | See also: Recent months at Busselton Airport
Date/Time
WST
Temp
°C
App
Temp
°C
Dew
Point
°C
Rel
Hum
%
Delta-T
°C
Wind Press
QNH
hPa
Press
MSL
hPa
Rain since
9am
mm
Dir  Spd
km/h
Gust
km/h
Spd
kts
Gust
kts
22/07:30pm 12.1 11.8 10.0 87 1.1 S 2 7 1 4 1022.8 1022.9 0.0
22/07:00pm 12.5 11.2 9.9 84 1.3 SW 7 9 4 5 1022.5 1022.6 0.0
22/06:30pm 12.8 11.1 9.8 82 1.5 WSW 9 13 5 7 1022.2 1022.3 0.0
22/06:00pm 12.9 10.7 9.5 80 1.7 SW 11 13 6 7 1021.8 1021.9 0.0
22/05:30pm 12.9 10.5 10.1 83 1.4 WSW 13 20 7 11 1021.6 1021.7 0.0
22/05:00pm 13.3 11.2 9.7 79 1.8 WSW 11 13 6 7 1021.4 1021.5 0.0
22/04:30pm 13.7 11.1 9.4 75 2.2 WSW 13 19 7 10 1021.1 1021.2 0.0
22/04:00pm 14.6 12.4 9.2 70 2.8 W 11 17 6 9 1020.8 1020.9 0.0
22/03:30pm 14.4 11.2 8.4 67 3.0 WSW 15 22 8 12 1021.0 1021.1 0.0
22/03:00pm 15.3 11.9 7.8 61 3.7 SW 15 19 8 10 1020.7 1020.8 0.0
22/02:30pm 14.8 11.9 8.3 65 3.3 SW 13 17 7 9 1020.5 1020.6 0.0
22/02:00pm 14.7 11.4 8.2 65 3.2 SSW 15 19 8 10 1020.4 1020.5 0.0
22/01:30pm 14.7 10.6 8.6 67 3.1 WSW 20 32 11 17 1020.4 1020.5 0.0
22/01:00pm 15.0 11.3 8.0 63 3.5 SW 17 22 9 12 1020.2 1020.3 0.0
22/12:30pm 14.5 11.2 8.0 65 3.2 SSW 15 20 8 11 1020.2 1020.3 0.0
22/12:00pm 14.6 12.2 8.8 68 2.9 WSW 11 15 6 8 1020.5 1020.6 0.0
22/11:30am 14.3 10.2 8.5 68 2.9 S 20 26 11 14 1020.9 1021.0 0.0
22/11:00am 13.8 9.4 7.6 66 3.0 SW 20 32 11 17 1020.9 1021.0 0.0
22/10:30am 14.0 12.4 8.2 68 2.9 SSE 6 9 3 5 1020.6 1020.7 0.0
22/10:00am 13.1 11.3 7.8 70 2.6 SSW 7 9 4 5 1020.5 1020.6 0.0
22/09:30am 12.9 11.3 8.2 73 2.3 SSW 6 9 3 5 1020.2 1020.3 0.0
22/09:00am 12.3 10.6 8.4 77 1.9 S 7 9 4 5 1020.0 1020.1 2.0
22/08:30am 11.7 9.2 8.4 80 1.6 S 11 17 6 9 1019.8 1019.9 2.0
22/08:00am 11.1 10.7 8.3 83 1.4 CALM 0 0 0 0 1019.3 1019.4 2.0
22/07:30am 11.0 10.5 7.9 81 1.5 CALM 0 6 0 3 1018.9 1019.0 2.0
22/07:00am 11.1 8.6 8.0 81 1.5 SSW 11 15 6 8 1018.5 1018.6 2.0
22/06:30am 10.5 8.7 8.1 85 1.2 S 7 13 4 7 1018.2 1018.3 2.0
22/06:00am 10.6 9.3 7.8 83 1.3 SSW 4 6 2 3 1017.6 1017.6 2.0
22/05:30am 10.6 8.9 7.7 82 1.4 SW 6 6 3 3 1017.3 1017.3 2.0
22/05:00am 10.6 8.3 7.5 81 1.5 SSW 9 13 5 7 1017.1 1017.1 2.0
22/04:30am 11.4 7.0 7.3 76 2.0 SW 20 32 11 17 1017.0 1017.0 2.0
22/04:00am 11.5 9.3 6.4 71 2.4 SW 7 9 4 5 1016.8 1016.8 2.0
22/03:30am 11.6 8.2 6.1 69 2.6 SW 13 15 7 8 1016.9 1016.9 2.0
22/03:00am 11.1 8.1 5.8 70 2.5 SW 11 13 6 7 1017.0 1017.0 2.0
22/02:30am 10.9 7.5 5.7 70 2.4 SW 13 19 7 10 1017.0 1017.0 2.0
22/02:00am 11.2 7.9 6.5 73 2.2 SSW 13 19 7 10 1017.0 1017.0 2.0
22/01:30am 11.7 7.6 7.8 77 1.9 SW 19 24 10 13 1016.8 1016.8 2.0
22/01:00am 10.7 7.0 7.8 82 1.4 SSW 17 24 9 13 1016.7 1016.7 2.0
22/12:30am 9.6 7.9 7.4 86 1.0 W 6 9 3 5 1016.4 1016.4 2.0
22/12:00am 9.8 8.0 7.2 84 1.2 SW 6 6 3 3 1016.5 1016.5 2.0
 
Date/Time
WST
Temp
°C
App
Temp
°C
Dew
Point
°C
Rel
Hum
%
Delta-T
°C
Wind Press
QNH
hPa
Press
MSL
hPa
Rain since
9am
mm
Dir  Spd
km/h
Gust
km/h
Spd
kts
Gust
kts
21/11:30pm 10.7 8.9 8.1 84 1.3 SW 7 11 4 6 1016.6 1016.6 2.0
21/11:00pm 11.2 9.6 8.2 82 1.5 SW 6 7 3 4 1016.4 1016.4 2.0
21/10:30pm 12.0 10.0 8.7 80 1.6 SW 9 11 5 6 1016.4 1016.4 2.0
21/10:00pm 12.9 10.9 10.3 84 1.3 SW 11 17 6 9 1016.4 1016.4 2.0
21/09:30pm 13.3 11.2 11.2 87 1.1 WSW 13 17 7 9 1016.2 1016.2 2.0
21/09:00pm 13.4 10.8 12.0 91 0.8 WSW 17 24 9 13 1016.0 1016.0 2.0
21/08:30pm 13.3 11.0 11.9 91 0.7 WSW 15 20 8 11 1015.8 1015.8 1.8
21/08:00pm 13.6 10.9 11.7 88 1.0 WSW 17 32 9 17 1015.6 1015.6 1.8
21/07:30pm 13.7 11.8 11.8 88 1.0 WSW 13 17 7 9 1015.1 1015.1 1.2
21/07:00pm 13.7 11.0 11.6 87 1.1 WSW 17 22 9 12 1015.2 1015.2 1.2
21/06:30pm 13.9 9.8 11.4 85 1.3 W 24 35 13 19 1015.0 1015.0 1.2
21/06:00pm 14.2 11.5 11.7 85 1.3 W 17 28 9 15 1014.5 1014.5 0.8
21/05:30pm 14.9 11.6 11.7 81 1.7 WSW 20 32 11 17 1014.4 1014.4 0.8
21/05:00pm 14.7 11.7 12.6 87 1.1 WSW 20 28 11 15 1014.5 1014.5 0.8
21/04:30pm 14.6 10.7 12.1 85 1.4 W 24 41 13 22 1014.4 1014.4 0.8
21/04:00pm 15.1 9.5 12.1 82 1.6 W 33 50 18 27 1014.3 1014.3 0.4
21/03:51pm 16.0 11.0 11.0 72 2.7 W 28 50 15 27 1014.3 1014.3 0.4
21/03:30pm 16.5 11.6 11.4 72 2.8 W 28 39 15 21 1014.0 1014.0 0.4
21/03:00pm 15.1 9.4 11.1 77 2.1 W 32 54 17 29 1014.3 1014.3 0.4
21/02:58pm 15.5 10.5 10.9 74 2.4 W 28 54 15 29 1014.4 1014.4 0.4
21/02:30pm 15.7 11.4 11.9 78 2.1 W 26 35 14 19 1013.9 1013.9 0.4
21/02:07pm 14.8 9.6 11.6 81 1.7 W 30 48 16 26 1014.1 1014.1 0.4
21/02:00pm 15.1 9.1 10.1 72 2.6 W 32 48 17 26 1014.3 1014.3 0.2
21/01:33pm 16.9 11.2 9.8 63 3.7 W 30 50 16 27 1014.2 1014.2 0.2
21/01:30pm 16.8 11.2 10.0 64 3.6 W 30 41 16 22 1014.1 1014.1 0.2
21/01:17pm 16.6 11.1 10.7 68 3.1 W 30 52 16 28 1014.3 1014.3 0.2
21/01:00pm 15.6 10.1 11.8 78 2.1 W 32 43 17 23 1014.5 1014.5 0.2
21/12:30pm 15.5 11.2 12.1 80 1.9 W 26 37 14 20 1014.8 1014.8 0.2
21/12:13pm 15.9 10.6 9.8 67 3.2 W 28 50 15 27 1015.1 1015.1 0.0
21/12:00pm 16.6 11.9 10.5 67 3.2 W 26 43 14 23 1015.1 1015.1 0.0
21/11:30am 16.3 11.6 10.6 69 3.0 W 26 39 14 21 1015.7 1015.7 0.0
21/11:00am 16.1 10.8 9.8 66 3.3 W 28 37 15 20 1015.9 1015.9 0.0
21/10:30am 15.5 12.1 11.3 76 2.3 W 20 28 11 15 1016.2 1016.2 0.0
21/10:02am 15.0 9.8 10.2 73 2.5 W 28 48 15 26 1016.5 1016.5 0.0
21/10:00am 15.0 10.1 10.0 72 2.6 W 26 39 14 21 1016.4 1016.4 0.0
21/09:30am 15.5 11.3 9.6 68 3.1 W 22 32 12 17 1015.9 1015.9 0.0
21/09:00am 15.2 11.6 9.8 70 2.8 W 19 24 10 13 1016.0 1016.0 1.4
21/08:30am 14.8 11.5 9.6 71 2.7 W 17 24 9 13 1015.7 1015.7 1.4
21/08:00am 14.1 10.8 9.7 75 2.3 WSW 17 24 9 13 1015.5 1015.5 1.4
21/07:30am 14.1 8.8 9.9 76 2.2 WSW 28 41 15 22 1015.6 1015.6 1.4
21/07:24am 14.4 9.0 9.4 72 2.6 W 28 41 15 22 1015.7 1015.7 1.4
21/07:00am 14.3 11.0 9.7 74 2.4 W 17 22 9 12 1015.3 1015.3 1.4
21/06:30am 14.8 10.1 9.4 70 2.8 W 24 41 13 22 1015.4 1015.4 1.4
21/06:00am 14.5 10.5 8.9 69 2.8 WSW 20 30 11 16 1015.5 1015.5 1.4
21/05:30am 14.1 10.7 10.5 79 1.9 W 19 24 10 13 1015.5 1015.5 1.4
21/05:00am 14.2 9.8 10.4 78 2.0 W 24 35 13 19 1015.8 1015.8 1.4
21/04:30am 14.5 12.0 9.7 73 2.5 W 13 19 7 10 1015.5 1015.5 1.2
21/04:00am 14.8 10.9 9.4 70 2.8 WSW 20 32 11 17 1015.8 1015.8 1.2
21/03:30am 15.2 10.6 8.2 63 3.5 W 22 32 12 17 1015.9 1015.9 1.2
21/03:00am 15.3 10.6 9.2 67 3.1 W 24 35 13 19 1016.1 1016.1 1.2
21/02:30am 15.0 11.8 9.8 71 2.7 W 17 26 9 14 1016.3 1016.3 1.2
21/02:00am 14.4 12.0 10.2 76 2.2 W 13 17 7 9 1016.4 1016.4 1.2
21/01:30am 14.6 11.7 9.8 73 2.5 W 15 22 8 12 1016.5 1016.5 1.2
21/01:00am 14.4 11.8 9.2 71 2.7 W 13 19 7 10 1016.7 1016.7 1.2
21/12:30am 14.6 10.8 9.8 73 2.5 WSW 20 28 11 15 1016.9 1016.9 1.2
21/12:00am 14.3 10.9 10.5 78 2.0 W 19 24 10 13 1016.9 1016.9 1.2
 
Date/Time
WST
Temp
°C
App
Temp
°C
Dew
Point
°C
Rel
Hum
%
Delta-T
°C
Wind Press
QNH
hPa
Press
MSL
hPa
Rain since
9am
mm
Dir  Spd
km/h
Gust
km/h
Spd
kts
Gust
kts
20/11:30pm 13.4 11.1 11.6 89 1.0 W 15 19 8 10 1017.1 1017.1 1.2
20/11:00pm 13.2 9.4 11.3 88 1.0 WSW 22 37 12 20 1017.3 1017.3 1.2
20/10:50pm 13.8 10.4 11.1 84 1.4 W 20 41 11 22 1017.5 1017.5 1.0
20/10:30pm 14.0 10.7 10.8 81 1.7 W 19 22 10 12 1017.2 1017.2 1.0
20/10:00pm 14.2 12.2 10.0 76 2.2 W 11 15 6 8 1017.4 1017.4 1.0
20/09:30pm 14.3 11.6 10.5 78 2.0 WSW 15 20 8 11 1017.3 1017.3 1.0
20/09:00pm 14.1 11.6 12.3 89 1.0 WSW 17 22 9 12 1017.4 1017.4 1.0
20/08:30pm 13.6 12.4 12.8 95 0.4 W 11 17 6 9 1017.4 1017.4 1.0
20/08:00pm 13.3 11.8 13.1 99 0.1 WSW 13 17 7 9 1017.3 1017.3 1.0
20/07:30pm 13.3 11.8 13.1 99 0.1 W 13 17 7 9 1017.2 1017.2 1.0
20/07:00pm 12.9 11.6 12.4 97 0.3 WNW 11 13 6 7 1017.1 1017.1 1.0
20/06:30pm 13.7 10.6 13.4 98 0.2 W 22 32 12 17 1017.1 1017.1 1.0
20/06:00pm 13.6 10.9 13.0 96 0.3 W 19 24 10 13 1016.9 1016.9 1.0
20/05:30pm 13.3 11.2 12.4 94 0.5 W 15 20 8 11 1016.6 1016.6 0.6
20/05:00pm 13.7 10.9 12.6 93 0.6 W 19 26 10 14 1016.8 1016.8 0.6
20/04:30pm 15.0 11.2 11.2 78 2.0 WNW 22 44 12 24 1016.5 1016.5 0.4
20/04:00pm 15.6 11.8 11.2 75 2.4 W 22 30 12 16 1016.2 1016.2 0.4
20/03:30pm 15.7 11.4 10.9 73 2.6 WNW 24 33 13 18 1016.4 1016.4 0.4
20/03:00pm 15.7 11.6 10.0 69 3.0 W 22 32 12 17 1016.2 1016.2 0.4
20/02:30pm 16.5 12.1 10.4 67 3.2 W 24 35 13 19 1016.2 1016.2 0.4
20/02:00pm 16.2 11.4 10.3 68 3.1 W 26 37 14 20 1016.1 1016.1 0.4
20/01:30pm 15.6 11.2 10.4 71 2.7 W 24 35 13 19 1016.4 1016.4 0.4
20/01:00pm 15.4 10.7 9.3 67 3.1 WSW 24 33 13 18 1016.6 1016.6 0.4
20/12:30pm 14.2 10.1 10.0 76 2.2 WSW 22 35 12 19 1016.9 1016.9 0.4
20/12:00pm 13.9 9.7 9.7 76 2.2 WSW 22 28 12 15 1017.1 1017.1 0.2
20/11:30am 14.1 10.3 9.1 72 2.5 WSW 19 28 10 15 1017.3 1017.3 0.0
20/11:00am 13.8 9.7 8.8 72 2.5 WSW 20 26 11 14 1017.2 1017.2 0.0
20/10:30am 13.3 10.7 9.2 76 2.1 W 13 19 7 10 1017.1 1017.1 0.0
20/10:00am 13.1 11.1 10.3 83 1.4 WNW 11 13 6 7 1016.8 1016.8 0.0
20/09:30am 11.6 9.4 9.2 85 1.2 WSW 11 17 6 9 1016.4 1016.4 0.0
20/09:00am 11.1 8.5 9.2 88 0.9 WNW 13 19 7 10 1016.3 1016.3 8.2
20/08:30am 9.6 8.1 9.0 96 0.3 WSW 7 13 4 7 1015.8 1015.8 8.2
20/08:00am 8.1 6.3 7.8 98 0.1 SW 7 13 4 7 1015.5 1015.5 8.2
20/07:30am 5.9 3.6 4.9 93 0.4 SE 6 9 3 5 1014.7 1014.7 8.2
20/07:00am 7.8 5.3 6.7 93 0.5 W 9 13 5 7 1014.1 1014.1 8.2
20/06:30am 7.7 5.6 5.8 88 0.9 WSW 6 7 3 4 1013.1 1013.1 8.2
20/06:00am 8.2 6.3 6.8 91 0.6 SW 6 7 3 4 1012.9 1012.9 8.2
20/05:30am 8.5 5.9 7.9 96 0.3 SW 11 17 6 9 1012.6 1012.6 8.2
20/05:00am 7.5 5.4 6.8 95 0.3 SW 7 7 4 4 1012.3 1012.3 8.2
20/04:30am 7.4 5.2 6.2 92 0.5 SSW 7 9 4 5 1011.8 1011.8 8.2
20/04:00am 7.3 5.0 5.6 89 0.8 W 7 13 4 7 1011.5 1011.5 8.2
20/03:30am 8.2 7.0 6.5 89 0.8 SW 2 7 1 4 1011.2 1011.2 8.2
20/03:00am 8.9 6.5 7.2 89 0.8 SW 9 17 5 9 1010.9 1010.9 8.2
20/02:30am 8.9 6.1 7.0 88 0.9 WSW 11 13 6 7 1010.5 1010.5 8.2
20/02:00am 9.1 6.0 7.4 89 0.8 WSW 13 17 7 9 1010.4 1010.4 8.0
20/01:30am 9.1 6.1 7.5 90 0.8 SW 13 22 7 12 1009.9 1009.9 7.6
20/01:00am 8.1 6.2 6.6 90 0.7 WNW 6 9 3 5 1009.5 1009.5 7.6
20/12:30am 9.0 7.0 7.1 88 0.9 WSW 7 9 4 5 1009.3 1009.3 7.6
20/12:00am 9.2 5.8 7.6 90 0.8 SW 15 22 8 12 1009.5 1009.5 7.6
 
Date/Time
WST
Temp
°C
App
Temp
°C
Dew
Point
°C
Rel
Hum
%
Delta-T
°C
Wind Press
QNH
hPa
Press
MSL
hPa
Rain since
9am
mm
Dir  Spd
km/h
Gust
km/h
Spd
kts
Gust
kts
19/11:38pm 9.2 5.5 8.0 92 0.6 WSW 17 35 9 19 1009.2 1009.2 7.4
19/11:30pm 7.6 5.6 6.1 90 0.7 WSW 6 7 3 4 1008.5 1008.5 7.4
19/11:00pm 8.9 5.8 7.4 90 0.7 SSW 13 19 7 10 1008.1 1008.1 7.4
19/10:36pm 9.7 5.8 8.5 92 0.6 SW 19 44 10 24 1008.9 1008.9 7.4
19/10:30pm 9.8 7.4 8.7 93 0.5 SW 11 19 6 10 1008.3 1008.3 7.2
19/10:00pm 9.4 8.0 8.8 96 0.3 WSW 6 30 3 16 1007.9 1007.9 6.8
19/09:30pm 8.9 7.0 7.7 92 0.6 WNW 7 9 4 5 1007.0 1007.0 6.8
19/09:00pm 9.6 8.8 8.2 91 0.7 WNW 2 7 1 4 1007.0 1007.0 6.8
19/08:30pm 9.8 8.1 8.2 90 0.8 WSW 7 9 4 5 1006.7 1006.7 6.6
19/08:00pm 10.2 6.1 8.6 90 0.8 SSW 20 28 11 15 1006.5 1006.5 6.4

Other formats

Comma delimited format used in spreadsheet applications
http://www.bom.gov.au/fwo/IDW60801/IDW60801.95611.axf

JavaScript Object Notation format (JSON) in row-major order
http://www.bom.gov.au/fwo/IDW60801/IDW60801.95611.json

Data quality

Most of these data are generated automatically and are frequently updated. Quality checks on data are not normally performed. It is possible for incorrect values to appear. Refer to information at About Latest Weather Observations and please check the disclaimer before using these data.